Aeroporto :
LOGIN :

Iscrizione | Disclaimer

   EN    FR    IT 

 










Sommario :    VFR   VFR Marginale   IFR   IFR Intensivo   IFR Molto Intensivo
Visibilità : 
Base nubi : 
>= 8 km
>= 3000ft
5 / 8 km
1000 / 3000 ft
1500m / 5 km
500 / 1000 ft
800 / 1500m
200 / 500 ft
< 800m
< 200 ft
Simboli :   Temporali  Nebbia  Neve Forte  Precipitazioni Forti  Vento > 20 kt
SIGMETs :   Varie  Temporali  Ghiacco  Turbolenza  Onda orograficha  Ceneri Vulcaniche






- Altitudine del aeroporto : 458 ft


LFSI - St-Dizier

ULTIMO METAR :
  • 220300Z AUTO 25002KT 1700 BR NSC 01/M00 Q1035

METARs OBSOLETI :
  • 220230Z AUTO 00000KT 1500 0800 R11/P2000 BCFG BKN012 BKN120 00/M00 Q1035
  • 220200Z AUTO 25003KT 6000 BKN042 02/01 Q1036
  • 220130Z AUTO 23003KT 6000 FEW027 OVC043 02/01 Q1036
  • 220100Z AUTO 22003KT 6000 BKN027 OVC043 02/01 Q1036
  • 220030Z AUTO VRB02KT 5000 BR BKN022 OVC028 02/01 Q1036
  • 220000Z AUTO 21002KT 4000 BR FEW018 BKN024 OVC034 02/01 Q1036

TAF TAF LFSI
Valido dal 21 a 21 ore il 22 a 21 ore UTC


212000Z 2121/2221 27003KT 7000 BKN010
TEMPO 2121/2123 4000 BR
BECMG 2123/2201 3000 BR BKN003
BECMG 2206/2209 6000 NSW BKN005
BECMG 2211/2213 BKN009
BECMG 2218/2221 3000 BR BKN004



MetMap, La meteo Aeronautica in un colpo d'occhio ! - Copyright ORBIFLY Dicembre 2007 - Disclaimer

ORBIFLY MET'MAP TEAM :

Programmazione e sviluppo : Alexandra Zaïnal
Concezione : Baudouin d'Aumeries
Aiuto per la programmazione : Marc-Olivier Méhu
Supporto tecnico e logistico : Manuel Goepfert
Aiuto per la traduzione : Arnaldo La Scala

Contatto : metmap@orbifly.com




FONTI E CREDITI :

   NOAA